Ana Sayfa
METAR-TAF:

METAR-TAF

Havaalanları :

Dakar, Senegal

Enlem: 14-44N, Boylam: 017-30W, yükseklik: 27 m

Güncel hava durumu gözlemi

Rapor saat 18:00 UTC de 1 saat ve 17 dakika önce yapıldı.
Rüzgar kuzeybatıdan 10 kt
Sıcaklık 25°C
Nem 79%
Basınç 1009 hPa
Görüş mesafesi 10 km veya daha fazla
1500 ft yükseklikte parçalı bulutlu

METAR: GOOY 251800Z 32010KT 9999 SCT015 25/21 Q1009

Saat: 19:17 (19:17 UTC)

Tahmin

Rapor saat 17:30 UTC de 1 saat ve 47 dakika önce yapıldı.
Ayın 25'si saat 18 UTC'den ayın 26'si saat 24 UTC'ye kadar geçerli Tahmin
Rüzgar kuzeybatıdan 10 kt
Görüş mesafesi 10 km veya daha fazla
1300 ft yükseklikte parçalı bulutlu
Dönüşüyor
ayın 26'si saat 07 UTC'den ayın 26'si saat 09 UTC'ye kadar
Rüzgar batı/güneybatıdan 10 kt

TAF: GOOY 251730Z 2518/2624 32010KT 9999 SCT013 BECMG 2607/2609 24010KT

4.000'den fazla havaalanı için hava durumu gözlemleri ve tahminleri (METAR ve TAF raporları).

Kullanılabilir istasyonlar harita üzerinde sarı ve kırmızı noktalarla gösterilir.

İstasyonun adını görmek için fareyi noktanın üzerinde gezdirin.

Sonrasında hava gözlem ve tahminlerini görmek için tıklayın.

Haritayı değiştirmek için: yaklaştırmak için siyah artı işaretli yeşil düğmeye ve uzaklaştırmak için de eksi işaretli düğmeye hızla tıklayın; bitişik haritalar için yeşil okları kullanın.


METAR-TAF: